createdAt,value
2019-01-05T00:02:02.576Z,27.20
2019-01-05T00:07:08.112Z,22.03
2019-01-05T00:12:25.720Z,24.70
2019-01-05T00:17:31.137Z,19.30
2019-01-05T00:22:38.662Z,18.27
2019-01-05T00:27:36.187Z,15.97
2019-01-05T00:32:44.908Z,15.63
2019-01-05T00:37:56.968Z,13.67
2019-01-05T00:43:01.924Z,11.47
2019-01-05T00:48:07.722Z,13.57
2019-01-05T00:53:11.234Z,14.20
2019-01-05T00:58:32.411Z,17.67
2019-01-05T01:03:35.705Z,13.53
2019-01-05T01:08:39.077Z,12.27
2019-01-05T01:13:42.221Z,10.33
2019-01-05T01:18:47.195Z,11.97
2019-01-05T01:23:52.235Z,12.90
2019-01-05T01:28:55.662Z,10.27
2019-01-05T01:34:00.919Z,12.00
2019-01-05T01:39:25.156Z,11.03
2019-01-05T01:44:28.517Z,10.40
2019-01-05T01:49:35.936Z,12.63
2019-01-05T01:54:39.382Z,9.83
2019-01-05T02:00:12.643Z,11.40
2019-01-05T02:05:35.945Z,12.33
2019-01-05T02:10:41.056Z,16.13
2019-01-05T02:16:06.548Z,13.60
2019-01-05T02:21:58.113Z,7.87
2019-01-05T02:27:39.156Z,14.83
2019-01-05T02:33:20.497Z,11.33
2019-01-05T02:39:36.104Z,12.43
2019-01-05T02:45:21.484Z,12.10
2019-01-05T02:51:02.246Z,11.97
2019-01-05T02:57:01.298Z,12.27
2019-01-05T03:02:50.236Z,9.47
2019-01-05T03:08:47.975Z,7.80
2019-01-05T03:14:24.271Z,10.53
2019-01-05T03:20:03.181Z,11.73
2019-01-05T03:25:46.954Z,11.67
2019-01-05T03:31:30.025Z,9.27
2019-01-05T03:37:07.613Z,11.20
2019-01-05T03:42:54.258Z,8.47
2019-01-05T03:48:37.211Z,7.73
2019-01-05T03:54:53.107Z,10.97
2019-01-05T04:00:24.377Z,9.67
2019-01-05T04:05:56.753Z,11.03
2019-01-05T04:11:46.474Z,8.37
2019-01-05T04:17:28.562Z,8.63
2019-01-05T04:23:53.158Z,5.80
2019-01-05T04:29:41.972Z,6.83
2019-01-05T04:35:22.858Z,9.47
2019-01-05T04:41:05.788Z,7.90
2019-01-05T04:46:51.389Z,6.37
2019-01-05T04:52:40.768Z,6.93
2019-01-05T04:58:16.992Z,6.80
2019-01-05T05:04:26.536Z,9.17
2019-01-05T05:10:26.207Z,12.87
2019-01-05T05:16:13.835Z,6.93
2019-01-05T05:22:02.182Z,8.00
2019-01-05T05:27:39.896Z,8.30
2019-01-05T05:33:20.338Z,11.63
2019-01-05T05:39:32.949Z,10.50
2019-01-05T05:45:33.587Z,9.97
2019-01-05T05:51:20.174Z,6.97
2019-01-05T05:57:04.871Z,6.50
2019-01-05T06:02:53.713Z,7.10
2019-01-05T06:09:11.305Z,12.37
2019-01-05T06:14:54.041Z,10.33
2019-01-05T06:20:52.423Z,8.53
2019-01-05T06:26:31.377Z,7.87
2019-01-05T06:32:11.712Z,8.80
2019-01-05T06:37:56.086Z,11.23
2019-01-05T06:43:41.367Z,9.37
2019-01-05T06:49:48.405Z,6.93
2019-01-05T06:55:37.431Z,11.17
2019-01-05T07:01:30.405Z,16.80
2019-01-05T07:07:26.497Z,11.27
2019-01-05T07:13:28.953Z,7.97
2019-01-05T07:19:08.593Z,9.00
2019-01-05T07:24:51.253Z,13.40
2019-01-05T07:31:08.643Z,15.60
2019-01-05T07:37:17.061Z,12.30
2019-01-05T07:43:20.003Z,15.43
2019-01-05T07:48:59.066Z,14.70
2019-01-05T07:54:38.974Z,19.60
2019-01-05T08:00:16.626Z,18.00
2019-01-05T08:06:34.962Z,17.17
2019-01-05T08:12:18.713Z,19.83
2019-01-05T08:18:30.562Z,20.43
2019-01-05T08:24:32.211Z,19.60
2019-01-05T08:30:19.336Z,22.77
2019-01-05T08:35:49.273Z,21.50
2019-01-05T08:41:27.136Z,23.57
2019-01-05T08:47:45.367Z,23.17
2019-01-05T08:53:44.190Z,21.10
2019-01-05T08:59:30.660Z,27.00
2019-01-05T09:05:08.508Z,24.47
2019-01-05T09:10:46.061Z,24.90
2019-01-05T09:17:04.518Z,31.93
2019-01-05T09:23:01.977Z,32.30
2019-01-05T09:29:14.233Z,26.60
2019-01-05T09:35:13.482Z,27.43
2019-01-05T09:41:19.528Z,32.93
2019-01-05T09:47:13.005Z,37.90
2019-01-05T09:53:07.344Z,44.67
2019-01-05T09:58:49.635Z,38.67
2019-01-05T10:04:33.683Z,51.23
2019-01-05T10:10:15.727Z,54.93
2019-01-05T10:16:02.592Z,40.07
2019-01-05T10:22:05.089Z,43.20
2019-01-05T10:28:02.005Z,41.43
2019-01-05T10:33:47.547Z,49.10
2019-01-05T10:39:36.672Z,46.83
2019-01-05T10:44:58.102Z,47.23
2019-01-05T10:50:42.814Z,51.13
2019-01-05T10:56:35.735Z,47.17
2019-01-05T11:02:39.346Z,59.97
2019-01-05T11:08:29.594Z,55.47
2019-01-05T11:14:09.431Z,64.73
2019-01-05T11:19:56.362Z,57.93
2019-01-05T11:26:11.554Z,52.63
2019-01-05T11:32:26.662Z,58.53
2019-01-05T11:38:07.321Z,70.80
2019-01-05T11:44:03.581Z,69.10
2019-01-05T11:49:42.350Z,62.60
2019-01-05T11:55:34.530Z,66.70
2019-01-05T12:01:31.403Z,65.07
2019-01-05T12:07:14.047Z,56.03
2019-01-05T12:13:14.655Z,50.93
2019-01-05T12:18:57.600Z,47.20
2019-01-05T12:24:30.792Z,49.77
2019-01-05T12:30:26.573Z,45.70
2019-01-05T12:36:02.721Z,40.80
2019-01-05T12:42:27.715Z,30.80
2019-01-05T12:48:11.402Z,35.43
2019-01-05T12:54:14.801Z,30.57
2019-01-05T13:00:34.816Z,32.10
2019-01-05T13:06:20.599Z,27.13
2019-01-05T13:12:16.085Z,28.80
2019-01-05T13:18:15.301Z,40.17
2019-01-05T13:24:10.300Z,36.57
2019-01-05T13:30:04.247Z,33.63
2019-01-05T13:36:06.659Z,29.43
2019-01-05T13:41:45.634Z,29.63
2019-01-05T13:47:34.232Z,26.23
2019-01-05T13:53:02.082Z,30.80
2019-01-05T13:58:12.725Z,29.27
2019-01-05T14:03:15.976Z,31.53
2019-01-05T14:08:36.702Z,36.10
2019-01-05T14:13:59.982Z,29.07
2019-01-05T14:19:03.204Z,26.20
2019-01-05T14:23:56.691Z,25.40
2019-01-05T14:28:59.905Z,26.27
2019-01-05T14:34:03.351Z,31.37
2019-01-05T14:39:09.601Z,32.37
2019-01-05T14:44:11.809Z,34.07
2019-01-05T14:49:16.421Z,40.23
2019-01-05T14:54:23.304Z,43.27
2019-01-05T14:59:34.048Z,40.50
2019-01-05T15:04:50.746Z,36.63
2019-01-05T15:10:07.188Z,40.20
2019-01-05T15:15:10.297Z,41.20
2019-01-05T15:20:30.048Z,39.07
2019-01-05T15:25:37.731Z,39.03
2019-01-05T15:30:40.830Z,52.13
2019-01-05T15:36:03.729Z,41.93
2019-01-05T15:41:20.446Z,37.07
2019-01-05T15:46:42.477Z,36.50
2019-01-05T15:51:43.487Z,34.57
2019-01-05T15:56:46.906Z,39.57
2019-01-05T16:01:57.784Z,42.80
2019-01-05T16:07:14.588Z,44.53
2019-01-05T16:12:22.032Z,44.07
2019-01-05T16:17:38.567Z,45.77
2019-01-05T16:22:42.202Z,49.67
2019-01-05T16:27:55.856Z,48.60
2019-01-05T16:33:00.554Z,38.70
2019-01-05T16:38:05.161Z,44.10
2019-01-05T16:43:12.879Z,43.47
2019-01-05T16:48:17.563Z,42.97
2019-01-05T16:53:28.622Z,38.17
2019-01-05T16:58:48.687Z,48.23
2019-01-05T17:03:51.858Z,46.30
2019-01-05T17:08:56.665Z,42.63
2019-01-05T17:14:01.389Z,53.10
2019-01-05T17:19:11.000Z,52.60
2019-01-05T17:24:18.725Z,57.40
2019-01-05T17:29:22.219Z,57.03
2019-01-05T17:34:30.076Z,58.73
2019-01-05T17:39:52.862Z,57.30
2019-01-05T17:45:00.880Z,53.57
2019-01-05T17:50:03.547Z,55.53
2019-01-05T17:55:07.062Z,54.47
2019-01-05T18:00:10.418Z,55.20
2019-01-05T18:05:21.331Z,61.63
2019-01-05T18:10:29.277Z,56.70
2019-01-05T18:15:32.598Z,61.63
2019-01-05T18:20:37.289Z,57.43
2019-01-05T18:25:57.347Z,61.57
2019-01-05T18:31:01.025Z,64.20
2019-01-05T18:36:21.438Z,63.20
2019-01-05T18:41:26.380Z,67.13
2019-01-05T18:46:37.531Z,64.87
2019-01-05T18:51:48.421Z,64.57
2019-01-05T18:56:52.052Z,60.17
2019-01-05T19:01:59.739Z,64.43
2019-01-05T19:07:07.768Z,69.30
2019-01-05T19:12:15.738Z,70.43
2019-01-05T19:17:26.536Z,74.03
2019-01-05T19:22:30.176Z,73.97
2019-01-05T19:27:31.508Z,81.47
2019-01-05T19:32:42.449Z,80.33
2019-01-05T19:37:47.490Z,79.53
2019-01-05T19:43:07.928Z,67.87
2019-01-05T19:48:15.897Z,69.47
2019-01-05T19:53:20.102Z,82.63
2019-01-05T19:58:32.708Z,78.77
2019-01-05T20:03:38.184Z,74.27
2019-01-05T20:08:55.857Z,71.17
2019-01-05T20:13:59.635Z,80.47
2019-01-05T20:19:02.042Z,94.27
2019-01-05T20:24:18.932Z,100.23
2019-01-05T20:29:34.932Z,86.47
2019-01-05T20:34:38.560Z,93.03
2019-01-05T20:39:43.601Z,99.57
2019-01-05T20:44:54.571Z,77.40
2019-01-05T20:49:58.907Z,76.40
2019-01-05T20:55:03.127Z,77.53
2019-01-05T21:00:17.114Z,84.23
2019-01-05T21:05:27.849Z,91.83
2019-01-05T21:10:31.317Z,74.20
2019-01-05T21:15:48.525Z,91.00
2019-01-05T21:20:56.119Z,82.37
2019-01-05T21:26:04.280Z,81.40
2019-01-05T21:31:07.594Z,85.73
2019-01-05T21:36:15.581Z,78.90
2019-01-05T21:41:23.156Z,88.93
2019-01-05T21:46:34.152Z,93.23
2019-01-05T21:51:37.374Z,81.37
2019-01-05T21:56:41.238Z,99.63
2019-01-05T22:01:44.837Z,97.30
2019-01-05T22:06:49.545Z,69.87
2019-01-05T22:12:04.555Z,79.93
2019-01-05T22:17:08.034Z,73.07
2019-01-05T22:22:25.380Z,72.90
2019-01-05T22:27:37.665Z,76.93
2019-01-05T22:32:41.250Z,85.57
2019-01-05T22:37:44.480Z,94.77
2019-01-05T22:42:58.140Z,89.87
2019-01-05T22:48:21.145Z,95.30
2019-01-05T22:53:41.258Z,91.67
2019-01-05T22:58:54.947Z,77.00
2019-01-05T23:04:05.691Z,87.53
2019-01-05T23:09:29.127Z,96.80
2019-01-05T23:14:49.185Z,92.83
2019-01-05T23:19:53.757Z,99.70
2019-01-05T23:25:04.239Z,80.13
2019-01-05T23:30:08.044Z,218.63
2019-01-05T23:35:10.640Z,361.87
2019-01-05T23:40:21.388Z,172.73
2019-01-05T23:45:35.102Z,129.17
2019-01-05T23:50:45.839Z,122.77
2019-01-05T23:55:51.322Z,116.07
